Harleston, Mississippi
Current Conditions -  °F | °C
As of 10:56 AM on Saturday 25 Oct 2014 (Local Time) from KMOB Reporting Station
Clear Clear  
Wind Chill: 70°   Ceiling: Unl
Heat Index: 70°   Visibility: 10mi
Dew Point: 52°   Wind: 9mph
Humidity: 53%   Direction: 20°NNE
Pressure: 30.15"   Gusts: NA
Location:  30.8443°N, 88.5703°W
Report Text: KMOB 251556Z 02008KT 10SM CLR 21/11 A3015 RMK AO2 SLP208 T02110111
Loading
Personal Weather Stations






























Interactive Weather Map
Tropical Storm Tracking
New forecast layout! Learn more

10-Day Weather Forecast

Advertisements
Track Severe Weather on mobile